Time;durP1;ratioP1;P1;durP2;ratioP2;P2;SDS_P1;SDS_P2;PMS_P1;PMS_P2;Temp;Humidity;BMP_temperature;BMP_pressure;BME280_temperature;BME280_humidity;BME280_pressure;Samples;Min_cycle;Max_cycle;Signal;HPM_P1;HPM_P2
2024/04/03 00:01:14;;;;;;;3.20;1.70;;;;;;;6.50;70.21;99646.83;104584;1259;138731;-66
2024/04/03 00:03:45;;;;;;;1.70;1.50;;;;;;;6.43;70.49;99647.56;104653;1254;76361;-66
2024/04/03 00:06:12;;;;;;;2.60;1.50;;;;;;;6.40;70.76;99646.60;104758;1258;137950;-72
2024/04/03 00:08:38;;;;;;;1.80;1.40;;;;;;;6.41;71.04;99648.20;105118;1254;73233;-73
2024/04/03 00:11:05;;;;;;;1.60;1.50;;;;;;;6.40;71.11;99649.38;104928;1256;137853;-72
2024/04/03 00:13:32;;;;;;;2.30;1.90;;;;;;;6.37;71.10;99643.75;105100;1257;62144;-66
2024/04/03 00:15:59;;;;;;;2.00;1.70;;;;;;;6.31;71.18;99640.98;104942;1254;75482;-72
2024/04/03 00:18:25;;;;;;;2.40;1.80;;;;;;;6.27;71.30;99637.93;108533;1253;138519;-73
2024/04/03 00:21:02;;;;;;;2.30;1.90;;;;;;;6.25;71.64;99639.44;108499;1254;71612;-73
2024/04/03 00:23:29;;;;;;;2.10;1.80;;;;;;;6.25;71.72;99642.40;108558;1254;139915;-74
2024/04/03 00:25:56;;;;;;;2.30;1.70;;;;;;;6.25;71.83;99643.98;108738;1256;62646;-73
2024/04/03 00:28:23;;;;;;;2.80;1.80;;;;;;;6.25;71.72;99649.02;108807;1255;74697;-74
2024/04/03 00:30:50;;;;;;;3.30;1.50;;;;;;;6.14;71.72;99651.55;105569;1259;140141;-74
2024/04/03 00:33:17;;;;;;;3.80;1.60;;;;;;;6.10;72.00;99643.77;106308;1254;73173;-75
2024/04/03 00:35:59;;;;;;;3.70;1.20;;;;;;;6.10;72.12;99643.60;105432;1261;138851;-66
2024/04/03 00:38:26;;;;;;;1.70;1.10;;;;;;;6.08;72.19;99643.74;104626;1259;62173;-67
2024/04/03 00:41:01;;;;;;;1.10;1.00;;;;;;;6.08;72.27;99645.64;104633;1259;75393;-66
2024/04/03 00:43:28;;;;;;;1.10;1.00;;;;;;;6.03;72.28;99639.08;104706;1259;138863;-67
2024/04/03 00:45:58;;;;;;;3.30;0.70;;;;;;;5.97;72.18;99636.16;108355;1253;73225;-67
2024/04/03 00:48:26;;;;;;;0.50;0.40;;;;;;;5.92;72.29;99635.64;108157;1254;138602;-68
2024/04/03 00:50:54;;;;;;;0.90;0.40;;;;;;;5.91;72.39;99636.30;108906;1254;61227;-68
2024/04/03 00:53:20;;;;;;;1.50;0.90;;;;;;;5.88;72.23;99642.30;108906;1254;138595;-68
2024/04/03 00:55:47;;;;;;;1.10;0.70;;;;;;;5.81;72.17;99643.17;109035;1253;66290;-68
2024/04/03 00:58:14;;;;;;;1.00;0.70;;;;;;;5.70;72.06;99646.89;109249;1254;71947;-67
2024/04/03 01:00:40;;;;;;;1.10;0.60;;;;;;;5.59;71.94;99645.89;109154;1253;138126;-68
2024/04/03 01:03:07;;;;;;;0.60;0.60;;;;;;;5.51;71.97;99651.41;109328;1254;59970;-68
2024/04/03 01:05:33;;;;;;;1.50;0.80;;;;;;;5.44;72.04;99650.88;109194;1254;138171;-67
2024/04/03 01:08:00;;;;;;;0.60;0.50;;;;;;;5.40;72.03;99650.25;108917;1254;66377;-67
2024/04/03 01:10:27;;;;;;;0.50;0.50;;;;;;;5.44;72.43;99647.74;109262;1254;73701;-66
2024/04/03 01:12:56;;;;;;;0.90;0.50;;;;;;;5.47;72.28;99648.52;107032;1254;138871;-74
2024/04/03 01:15:22;;;;;;;1.20;0.50;;;;;;;5.47;72.20;99650.09;109186;1254;60392;-73
2024/04/03 01:17:49;;;;;;;0.50;0.50;;;;;;;5.43;71.98;99648.59;105444;1254;138160;-72
2024/04/03 01:20:18;;;;;;;0.40;0.40;;;;;;;5.41;72.10;99642.63;105245;1254;65506;-71
2024/04/03 01:22:45;;;;;;;0.90;0.40;;;;;;;5.41;72.20;99636.01;105010;1259;72886;-70
2024/04/03 01:25:12;;;;;;;0.70;0.50;;;;;;;5.44;72.30;99636.96;104913;1257;138099;-71
2024/04/03 01:27:38;;;;;;;0.30;0.30;;;;;;;5.47;72.26;99639.82;104742;1259;61938;-71
2024/04/03 01:30:06;;;;;;;0.50;0.40;;;;;;;5.46;72.16;99638.23;104861;1253;138186;-69
2024/04/03 01:32:33;;;;;;;0.40;0.40;;;;;;;5.44;72.05;99635.39;105183;1254;66452;-71
2024/04/03 01:34:59;;;;;;;0.70;0.40;;;;;;;5.45;72.23;99635.95;105076;1254;73518;-71
2024/04/03 01:37:26;;;;;;;0.40;0.40;;;;;;;5.43;72.13;99637.45;105077;1254;137248;-72
2024/04/03 01:39:52;;;;;;;0.50;0.40;;;;;;;5.44;72.34;99638.18;105141;1256;62049;-72
2024/04/03 01:42:20;;;;;;;0.30;0.30;;;;;;;5.45;72.24;99640.48;104914;1254;137667;-72
2024/04/03 01:44:48;;;;;;;0.80;0.70;;;;;;;5.43;72.30;99640.26;105129;1257;67350;-73
2024/04/03 01:47:15;;;;;;;1.70;0.60;;;;;;;5.42;72.41;99645.27;109149;1253;138755;-72
2024/04/03 01:49:41;;;;;;;0.40;0.40;;;;;;;5.41;72.42;99640.89;109312;1254;59960;-73
2024/04/03 01:52:08;;;;;;;0.60;0.60;;;;;;;5.40;72.50;99642.77;109327;1254;61703;-72
2024/04/03 01:54:35;;;;;;;0.50;0.50;;;;;;;5.38;72.53;99645.16;109159;1253;138318;-72
2024/04/03 01:57:01;;;;;;;1.20;1.00;;;;;;;5.32;72.52;99644.82;109307;1254;64550;-72
2024/04/03 01:59:28;;;;;;;1.30;0.70;;;;;;;5.28;72.80;99643.30;109170;1258;138400;-72
2024/04/03 02:01:55;;;;;;;1.30;0.80;;;;;;;5.30;72.94;99641.08;109297;1254;59811;-73
2024/04/03 02:04:21;;;;;;;1.60;0.80;;;;;;;5.33;73.07;99638.58;109246;1254;60203;-73
2024/04/03 02:06:48;;;;;;;1.40;0.70;;;;;;;5.38;73.15;99641.50;109189;1254;138124;-74
2024/04/03 02:09:14;;;;;;;0.50;0.50;;;;;;;5.38;73.10;99639.77;109322;1254;64690;-75
2024/04/03 02:11:41;;;;;;;0.50;0.50;;;;;;;5.40;73.17;99635.98;106154;1257;138275;-73
2024/04/03 02:14:12;;;;;;;0.60;0.60;;;;;;;5.42;73.23;99635.01;106109;1254;62276;-74
2024/04/03 02:16:45;;;;;;;1.50;0.70;;;;;;;5.44;73.12;99633.83;106025;1254;62076;-73
2024/04/03 02:19:12;;;;;;;0.50;0.50;;;;;;;5.43;72.89;99632.77;105087;1259;137244;-73
2024/04/03 02:21:39;;;;;;;0.90;0.60;;;;;;;5.33;72.84;99629.34;105120;1256;67265;-73
2024/04/03 02:24:06;;;;;;;1.10;0.80;;;;;;;5.27;72.97;99630.59;104997;1254;137873;-73
2024/04/03 02:26:32;;;;;;;0.50;0.50;;;;;;;5.23;73.01;99631.50;105087;1255;61962;-72
2024/04/03 02:28:59;;;;;;;1.10;0.70;;;;;;;5.22;73.08;99627.50;105105;1256;62397;-72
2024/04/03 02:31:26;;;;;;;0.70;0.70;;;;;;;5.22;73.18;99623.83;105004;1254;138545;-68
2024/04/03 02:33:52;;;;;;;1.10;0.50;;;;;;;5.24;73.24;99622.48;105094;1254;66518;-65
2024/04/03 02:36:19;;;;;;;1.10;0.80;;;;;;;5.23;73.23;99624.20;104787;1256;138256;-65
2024/04/03 02:38:46;;;;;;;1.70;0.60;;;;;;;5.24;73.29;99624.58;104988;1254;62172;-72
2024/04/03 02:41:13;;;;;;;0.90;0.70;;;;;;;5.24;73.31;99627.02;105044;1259;138785;-71
2024/04/03 02:43:39;;;;;;;0.60;0.60;;;;;;;5.21;73.16;99621.73;105076;1254;76948;-70
2024/04/03 02:46:06;;;;;;;2.00;0.50;;;;;;;5.17;73.07;99623.50;105219;1254;62153;-71
2024/04/03 02:48:32;;;;;;;0.70;0.70;;;;;;;5.12;73.00;99625.45;105030;1254;137342;-71
2024/04/03 02:51:00;;;;;;;1.20;0.70;;;;;;;5.09;73.00;99628.15;105096;1259;63356;-72
2024/04/03 02:53:27;;;;;;;0.80;0.60;;;;;;;5.05;73.03;99627.16;105136;1254;137475;-74
2024/04/03 02:55:53;;;;;;;0.60;0.50;;;;;;;5.01;73.13;99627.23;105142;1254;76131;-74
2024/04/03 02:58:20;;;;;;;0.50;0.50;;;;;;;5.00;73.05;99624.24;105092;1258;65554;-74
2024/04/03 03:00:46;;;;;;;0.80;0.80;;;;;;;5.00;73.20;99622.70;104933;1257;138180;-73
2024/04/03 03:03:13;;;;;;;0.50;0.50;;;;;;;5.02;73.17;99621.00;104922;1257;62518;-70
2024/04/03 03:05:40;;;;;;;0.60;0.50;;;;;;;5.03;73.15;99617.56;104982;1254;138123;-66
2024/04/03 03:08:07;;;;;;;0.70;0.70;;;;;;;5.00;73.12;99616.59;105235;1254;75167;-67
2024/04/03 03:10:33;;;;;;;0.80;0.60;;;;;;;5.00;73.14;99614.85;105170;1254;66161;-67
2024/04/03 03:13:00;;;;;;;0.80;0.70;;;;;;;5.01;73.37;99613.50;105044;1260;138081;-67
2024/04/03 03:15:27;;;;;;;0.50;0.50;;;;;;;5.03;73.29;99612.32;104988;1259;62204;-68
2024/04/03 03:17:53;;;;;;;0.60;0.60;;;;;;;5.02;73.23;99614.39;105073;1259;137459;-67
2024/04/03 03:20:20;;;;;;;0.60;0.60;;;;;;;4.99;73.16;99621.42;105143;1260;74653;-67
2024/04/03 03:22:48;;;;;;;1.60;0.70;;;;;;;4.94;73.03;99617.45;105087;1254;67503;-68
2024/04/03 03:25:14;;;;;;;0.70;0.70;;;;;;;4.88;73.06;99622.17;104845;1259;137433;-67
2024/04/03 03:27:41;;;;;;;0.50;0.50;;;;;;;4.79;72.76;99620.52;105111;1253;62057;-67
2024/04/03 03:30:08;;;;;;;0.80;0.70;;;;;;;4.71;72.83;99627.05;104984;1254;138306;-67
2024/04/03 03:32:35;;;;;;;1.30;1.10;;;;;;;4.62;72.77;99625.55;105149;1258;76493;-67
2024/04/03 03:35:01;;;;;;;0.70;0.70;;;;;;;4.57;72.92;99630.06;105250;1254;66771;-67
2024/04/03 03:37:28;;;;;;;1.80;1.00;;;;;;;4.55;72.93;99629.13;104949;1254;137801;-67
2024/04/03 03:39:55;;;;;;;0.70;0.70;;;;;;;4.54;72.98;99631.20;104962;1259;62056;-67
2024/04/03 03:42:22;;;;;;;0.90;0.90;;;;;;;4.53;73.02;99630.81;105053;1254;137989;-66
2024/04/03 03:44:49;;;;;;;1.30;1.00;;;;;;;4.52;73.19;99629.73;105018;1257;75073;-66
2024/04/03 03:47:16;;;;;;;1.00;0.80;;;;;;;4.53;73.14;99632.73;105071;1254;138253;-67
2024/04/03 03:52:36;;;;;;;0.70;0.70;;;;;;;4.53;73.06;99638.80;105092;1259;62067;-73
2024/04/03 03:55:04;;;;;;;0.70;0.70;;;;;;;4.51;73.17;99643.44;104802;1257;137606;-72
2024/04/03 03:57:31;;;;;;;0.70;0.70;;;;;;;4.52;73.01;99649.19;109051;1254;76194;-72
2024/04/03 03:59:57;;;;;;;1.40;0.90;;;;;;;4.51;73.11;99646.41;109106;1254;138135;-73
2024/04/03 04:02:24;;;;;;;0.70;0.70;;;;;;;4.46;72.89;99646.77;108918;1254;71176;-72
2024/04/03 04:04:51;;;;;;;0.70;0.60;;;;;;;4.49;73.16;99648.59;107977;1259;60136;-74
2024/04/03 04:07:21;;;;;;;3.20;1.00;;;;;;;4.53;73.05;99654.45;105983;1254;137966;-72
2024/04/03 04:09:49;;;;;;;1.00;0.90;;;;;;;4.58;73.11;99653.55;106134;1257;76831;-71
2024/04/03 04:12:18;;;;;;;1.60;1.00;;;;;;;4.60;72.83;99654.16;104825;1259;138249;-72
2024/04/03 04:14:51;;;;;;;0.70;0.70;;;;;;;4.61;72.78;99653.31;105063;1259;72590;-72
2024/04/03 04:17:19;;;;;;;1.10;1.00;;;;;;;4.61;72.74;99656.96;105009;1260;137858;-69
2024/04/03 04:19:46;;;;;;;0.80;0.80;;;;;;;4.56;72.55;99659.77;105200;1260;62113;-71
2024/04/03 04:22:12;;;;;;;0.90;0.80;;;;;;;4.48;72.65;99661.25;105239;1258;75185;-71
2024/04/03 04:24:39;;;;;;;0.80;0.80;;;;;;;4.44;72.75;99662.85;105099;1254;137934;-71
2024/04/03 04:27:07;;;;;;;1.70;1.00;;;;;;;4.41;72.84;99663.09;105177;1253;73259;-70
2024/04/03 04:29:40;;;;;;;1.10;1.00;;;;;;;4.38;73.04;99660.41;105505;1259;138272;-71
2024/04/03 04:32:10;;;;;;;0.90;0.90;;;;;;;4.37;72.90;99666.29;105275;1256;62009;-71
2024/04/03 04:34:40;;;;;;;1.70;1.10;;;;;;;4.37;73.10;99667.16;104894;1254;76533;-71
2024/04/03 04:37:07;;;;;;;0.80;0.80;;;;;;;4.39;73.10;99670.18;104932;1260;138853;-72
2024/04/03 04:39:33;;;;;;;1.10;0.90;;;;;;;4.38;73.07;99672.23;104900;1254;73345;-71
2024/04/03 04:42:00;;;;;;;0.90;0.80;;;;;;;4.39;73.19;99675.55;104785;1261;137947;-70
2024/04/03 04:44:27;;;;;;;1.00;0.80;;;;;;;4.39;73.16;99679.73;104871;1259;193247;-72
2024/04/03 04:46:56;;;;;;;1.80;1.30;;;;;;;4.40;73.31;99690.36;104631;1259;76095;-67
2024/04/03 04:49:23;;;;;;;1.40;1.30;;;;;;;4.36;73.20;99690.90;108510;1259;138413;-66
2024/04/03 04:51:50;;;;;;;3.40;1.50;;;;;;;4.36;73.18;99699.77;105405;1259;70790;-65
2024/04/03 04:54:17;;;;;;;2.90;1.30;;;;;;;4.38;73.30;99702.93;104476;1257;138871;-66
2024/04/03 04:56:46;;;;;;;5.60;1.30;;;;;;;4.32;73.05;99707.81;105131;1257;62146;-66
2024/04/03 04:59:15;;;;;;;1.50;1.40;;;;;;;4.31;73.32;99706.38;104832;1260;138673;-62
2024/04/03 05:01:42;;;;;;;2.00;1.40;;;;;;;4.37;73.42;99706.23;104877;1255;67637;-66
2024/04/03 05:04:10;;;;;;;2.40;1.30;;;;;;;4.39;73.13;99713.95;104885;1256;73252;-61
2024/04/03 05:06:37;;;;;;;1.00;1.00;;;;;;;4.33;72.99;99719.11;108600;1253;138140;-62
2024/04/03 05:09:05;;;;;;;1.80;1.20;;;;;;;4.25;72.89;99719.90;109115;1254;60226;-66
2024/04/03 05:11:32;;;;;;;1.20;1.10;;;;;;;4.24;72.92;99731.70;108534;1254;137403;-64
2024/04/03 05:14:00;;;;;;;1.20;0.90;;;;;;;4.16;72.88;99724.98;108436;1254;67682;-63
2024/04/03 05:16:29;;;;;;;1.70;1.20;;;;;;;4.17;73.15;99727.77;106959;1260;71022;-72
2024/04/03 05:18:56;;;;;;;2.50;1.00;;;;;;;4.17;73.02;99728.81;103815;1259;138075;-72
2024/04/03 05:21:23;;;;;;;2.20;1.20;;;;;;;4.21;72.98;99734.36;104489;1259;62143;-71
2024/04/03 05:23:50;;;;;;;3.80;1.20;;;;;;;4.21;72.85;99736.96;104896;1259;138155;-72
2024/04/03 05:26:17;;;;;;;2.80;1.40;;;;;;;4.18;72.90;99744.34;104925;1260;65571;-72
2024/04/03 05:28:44;;;;;;;1.60;1.10;;;;;;;4.19;72.91;99744.34;104939;1257;73118;-72
2024/04/03 05:31:14;;;;;;;1.90;1.20;;;;;;;4.17;72.63;99752.27;104694;1259;137741;-72
2024/04/03 05:33:42;;;;;;;1.30;1.10;;;;;;;4.16;72.70;99756.21;105584;1259;61945;-73
2024/04/03 05:36:09;;;;;;;2.50;1.40;;;;;;;4.20;72.75;99761.73;107590;1257;137990;-66
2024/04/03 05:38:37;;;;;;;1.40;1.30;;;;;;;4.21;72.64;99761.08;104641;1261;66485;-64
2024/04/03 05:41:04;;;;;;;4.10;1.60;;;;;;;4.28;72.75;99764.80;104845;1260;72292;-64
2024/04/03 05:43:31;;;;;;;3.40;1.40;;;;;;;4.35;72.82;99765.40;104766;1259;62042;-64
2024/04/03 05:45:58;;;;;;;1.60;1.40;;;;;;;4.47;72.95;99774.13;104927;1254;62259;-64
2024/04/03 05:48:26;;;;;;;2.10;1.50;;;;;;;4.56;72.85;99776.50;104917;1260;138814;-73
2024/04/03 05:51:06;;;;;;;3.00;1.60;;;;;;;4.63;72.78;99778.67;104965;1259;67559;-65
2024/04/03 05:53:33;;;;;;;3.80;1.90;;;;;;;4.74;72.61;99782.69;109042;1256;138205;-65
2024/04/03 05:56:01;;;;;;;3.00;2.00;;;;;;;4.82;72.61;99784.14;109022;1254;59883;-65
2024/04/03 05:58:28;;;;;;;2.50;1.90;;;;;;;4.90;72.62;99788.05;109046;1254;60793;-66
2024/04/03 06:00:56;;;;;;;2.30;1.90;;;;;;;4.93;72.18;99791.65;109093;1254;138108;-65
2024/04/03 06:03:22;;;;;;;3.80;2.10;;;;;;;4.90;72.13;99792.23;109040;1254;66403;-64
2024/04/03 06:05:53;;;;;;;3.70;2.00;;;;;;;4.85;72.05;99795.38;106059;1255;138164;-73
2024/04/03 06:08:20;;;;;;;3.50;1.90;;;;;;;4.86;72.00;99799.76;105072;1256;62058;-74
2024/04/03 06:10:47;;;;;;;3.00;2.00;;;;;;;4.85;71.97;99802.15;109174;1254;59758;-73
2024/04/03 06:13:14;;;;;;;2.00;1.60;;;;;;;4.88;71.99;99804.67;109107;1254;138511;-74
2024/04/03 06:15:40;;;;;;;3.10;2.00;;;;;;;4.98;71.95;99805.85;109032;1254;65059;-74
2024/04/03 06:18:07;;;;;;;2.20;1.60;;;;;;;5.08;71.85;99810.53;109077;1254;137324;-73
2024/04/03 06:20:34;;;;;;;2.60;2.00;;;;;;;5.15;71.54;99813.53;109251;1254;59757;-74
2024/04/03 06:23:00;;;;;;;3.20;2.30;;;;;;;5.18;71.45;99810.50;109223;1254;61516;-73
2024/04/03 06:25:27;;;;;;;3.10;1.90;;;;;;;5.25;71.38;99816.48;109081;1256;137827;-74
2024/04/03 06:27:56;;;;;;;2.40;1.80;;;;;;;5.33;71.23;99817.38;109286;1255;66570;-73
2024/04/03 06:30:23;;;;;;;5.30;2.00;;;;;;;5.40;70.95;99819.70;108993;1259;137829;-73
2024/04/03 06:32:49;;;;;;;3.10;2.00;;;;;;;5.44;70.70;99821.91;109246;1254;59721;-73
2024/04/03 06:35:16;;;;;;;4.90;2.10;;;;;;;5.50;70.50;99822.63;109207;1254;138209;-73
2024/04/03 06:37:43;;;;;;;3.50;1.90;;;;;;;5.48;69.78;99828.50;109357;1254;75462;-74
2024/04/03 06:40:09;;;;;;;3.20;1.70;;;;;;;5.32;69.46;99837.38;109346;1253;66103;-73
2024/04/03 06:42:36;;;;;;;3.90;1.80;;;;;;;5.26;69.60;99841.90;107745;1254;137995;-66
2024/04/03 06:45:04;;;;;;;3.60;1.70;;;;;;;5.12;69.17;99848.07;105132;1254;62125;-65
2024/04/03 06:47:30;;;;;;;3.30;1.90;;;;;;;5.00;69.58;99853.41;109264;1254;138604;-73
2024/04/03 06:49:57;;;;;;;3.10;1.70;;;;;;;4.99;69.78;99855.45;109325;1253;76661;-73
2024/04/03 06:52:24;;;;;;;2.20;1.60;;;;;;;5.07;69.87;99862.48;109343;1254;65175;-73
2024/04/03 06:54:51;;;;;;;2.50;1.70;;;;;;;5.11;69.85;99862.09;109089;1254;137837;-74
2024/04/03 06:57:17;;;;;;;4.10;1.60;;;;;;;5.25;69.92;99861.67;109196;1254;59681;-74
2024/04/03 06:59:44;;;;;;;3.40;1.80;;;;;;;5.29;69.62;99861.64;107352;1255;138359;-73
2024/04/03 07:02:11;;;;;;;2.40;1.70;;;;;;;5.39;69.76;99858.98;105105;1257;75166;-73
2024/04/03 07:04:37;;;;;;;4.20;1.40;;;;;;;5.56;69.54;99862.12;105176;1258;67211;-73
2024/04/03 07:07:05;;;;;;;2.70;1.70;;;;;;;5.64;69.38;99863.08;104945;1259;137314;-73
2024/04/03 07:09:31;;;;;;;3.40;1.50;;;;;;;5.75;69.25;99864.27;105139;1254;62340;-73
2024/04/03 07:11:58;;;;;;;2.20;1.50;;;;;;;5.89;69.32;99870.77;104968;1259;137464;-74
2024/04/03 07:14:24;;;;;;;2.20;1.40;;;;;;;6.00;69.21;99866.27;105168;1254;76036;-73
2024/04/03 07:16:52;;;;;;;2.20;1.50;;;;;;;6.14;68.84;99872.59;105171;1254;66036;-73
2024/04/03 07:19:19;;;;;;;2.00;1.60;;;;;;;6.16;68.50;99877.53;104980;1260;137232;-73
2024/04/03 07:21:45;;;;;;;3.10;1.50;;;;;;;6.21;68.37;99880.10;105098;1254;62095;-72
2024/04/03 07:24:13;;;;;;;1.90;1.10;;;;;;;6.20;68.00;99883.73;105042;1257;137383;-73
2024/04/03 07:26:39;;;;;;;1.40;1.30;;;;;;;6.01;67.94;99888.92;105047;1260;76426;-65
2024/04/03 07:29:08;;;;;;;1.80;1.50;;;;;;;5.85;67.72;99898.52;104935;1259;137604;-65
2024/04/03 07:31:35;;;;;;;2.90;1.40;;;;;;;5.80;67.97;99905.48;109171;1254;73784;-65
2024/04/03 07:34:01;;;;;;;2.80;1.70;;;;;;;5.75;67.95;99909.70;108990;1254;59823;-65
2024/04/03 07:36:28;;;;;;;2.70;1.70;;;;;;;5.78;68.30;99916.42;109177;1254;137929;-65
2024/04/03 07:38:55;;;;;;;2.10;1.70;;;;;;;5.84;68.20;99919.56;109383;1254;73518;-65
2024/04/03 07:41:27;;;;;;;1.60;1.40;;;;;;;5.83;68.00;99923.20;109205;1254;138406;-65
2024/04/03 07:43:54;;;;;;;2.70;1.80;;;;;;;5.90;67.97;99927.55;109357;1254;71442;-65
2024/04/03 07:46:20;;;;;;;4.90;1.90;;;;;;;5.97;67.84;99926.61;109345;1254;59901;-65
2024/04/03 07:48:47;;;;;;;1.90;1.30;;;;;;;6.11;67.79;99933.81;109177;1253;137386;-65
2024/04/03 07:51:14;;;;;;;2.70;1.50;;;;;;;6.18;67.09;99939.06;108996;1254;73300;-65
2024/04/03 07:53:40;;;;;;;2.30;1.30;;;;;;;6.15;66.31;99944.20;109196;1254;137652;-66
2024/04/03 07:56:07;;;;;;;2.50;1.50;;;;;;;6.12;66.03;99949.86;105868;1256;72853;-65
2024/04/03 07:58:34;;;;;;;2.40;1.30;;;;;;;6.02;65.91;99952.72;105240;1254;61964;-74
2024/04/03 08:01:01;;;;;;;3.10;1.40;;;;;;;5.98;65.67;99949.27;105066;1257;137555;-74
2024/04/03 08:03:28;;;;;;;3.90;1.90;;;;;;;6.08;66.24;99952.55;105205;1254;76478;-73
2024/04/03 08:05:55;;;;;;;5.40;1.60;;;;;;;6.24;66.06;99956.69;109218;1254;137377;-73
2024/04/03 08:08:23;;;;;;;2.50;1.60;;;;;;;6.29;65.75;99961.71;109299;1254;73255;-73
2024/04/03 08:10:50;;;;;;;2.60;1.30;;;;;;;6.33;65.39;99965.13;106696;1260;61990;-73
2024/04/03 08:13:16;;;;;;;2.00;1.40;;;;;;;6.41;65.43;99964.48;104958;1260;137351;-73
2024/04/03 08:15:43;;;;;;;3.60;2.10;;;;;;;6.61;65.54;99968.73;104979;1258;76835;-73
2024/04/03 08:18:09;;;;;;;1.50;1.40;;;;;;;6.79;65.24;99974.96;105001;1259;137704;-72
2024/04/03 08:20:36;;;;;;;2.50;1.50;;;;;;;6.97;65.12;99974.60;105164;1257;73080;-73
2024/04/03 08:23:03;;;;;;;4.80;1.50;;;;;;;7.13;64.61;99978.34;105088;1257;62634;-73
2024/04/03 08:25:29;;;;;;;2.70;1.40;;;;;;;7.26;64.48;99974.48;104923;1255;137319;-72
2024/04/03 08:27:56;;;;;;;1.90;1.40;;;;;;;7.33;63.85;99977.27;105034;1259;74920;-73
2024/04/03 08:30:23;;;;;;;1.90;1.10;;;;;;;7.32;63.48;99980.73;104929;1257;137295;-72
2024/04/03 08:32:49;;;;;;;1.60;1.20;;;;;;;7.33;63.41;99983.03;105077;1257;73437;-73
2024/04/03 08:35:16;;;;;;;2.10;1.20;;;;;;;7.37;63.38;99986.46;104808;1260;138050;-72
2024/04/03 08:37:42;;;;;;;1.30;1.10;;;;;;;7.47;63.44;99988.96;105011;1254;61936;-73
2024/04/03 08:40:13;;;;;;;2.30;1.20;;;;;;;7.67;63.74;99991.58;104768;1254;76144;-73
2024/04/03 08:42:39;;;;;;;2.50;1.20;;;;;;;7.90;63.43;99996.50;107664;1254;138346;-73
2024/04/03 08:45:07;;;;;;;2.10;1.30;;;;;;;7.93;62.70;99993.93;105119;1257;73448;-73
2024/04/03 08:47:33;;;;;;;2.80;1.40;;;;;;;8.05;63.01;99998.22;104960;1254;137772;-72
2024/04/03 08:50:00;;;;;;;1.90;1.20;;;;;;;8.27;63.17;100000.81;104874;1261;62082;-73
2024/04/03 08:52:28;;;;;;;1.10;1.00;;;;;;;8.46;62.86;100007.38;105039;1254;75131;-72
2024/04/03 08:54:55;;;;;;;2.00;1.20;;;;;;;8.55;62.44;100009.51;108872;1253;137642;-73
2024/04/03 08:57:22;;;;;;;1.20;1.10;;;;;;;8.62;62.13;100006.32;109036;1254;72869;-73
2024/04/03 08:59:49;;;;;;;1.30;1.10;;;;;;;8.76;61.85;100005.03;108905;1254;138204;-73
2024/04/03 09:02:15;;;;;;;1.60;1.30;;;;;;;8.94;61.95;100009.27;109309;1253;59812;-74
2024/04/03 09:04:42;;;;;;;1.60;1.00;;;;;;;9.14;61.56;100011.73;107083;1256;74794;-73
2024/04/03 09:07:18;;;;;;;1.20;0.90;;;;;;;9.27;61.07;100014.06;104857;1254;138071;-74
2024/04/03 09:09:45;;;;;;;2.70;1.30;;;;;;;9.18;60.29;100015.66;104964;1259;73684;-73
2024/04/03 09:12:12;;;;;;;1.20;1.10;;;;;;;8.95;59.86;100014.33;105099;1254;137917;-65
2024/04/03 09:14:39;;;;;;;1.60;1.10;;;;;;;8.77;60.10;100014.68;105152;1254;62167;-65
2024/04/03 09:17:05;;;;;;;1.40;1.00;;;;;;;8.59;59.97;100019.91;105017;1254;76161;-65
2024/04/03 09:19:33;;;;;;;2.40;1.10;;;;;;;8.36;59.65;100026.38;104981;1259;66772;-65
2024/04/03 09:22:01;;;;;;;3.00;1.00;;;;;;;8.17;60.14;100039.39;109254;1252;73502;-65
2024/04/03 09:24:33;;;;;;;3.40;1.10;;;;;;;8.07;60.49;100040.73;109006;1254;138766;-65
2024/04/03 09:27:04;;;;;;;3.30;1.60;;;;;;;8.19;61.29;100039.80;109030;1254;59961;-65
2024/04/03 09:29:30;;;;;;;1.40;0.90;;;;;;;8.46;61.45;100039.91;108966;1254;138528;-65
2024/04/03 09:32:04;;;;;;;1.40;0.90;;;;;;;8.56;60.98;100046.42;109213;1254;65151;-65
2024/04/03 09:34:31;;;;;;;2.20;1.40;;;;;;;8.62;60.74;100045.66;109021;1254;73249;-65
2024/04/03 09:37:00;;;;;;;1.90;1.10;;;;;;;8.83;60.75;100052.23;105455;1257;138508;-64
2024/04/03 09:39:26;;;;;;;1.70;1.20;;;;;;;9.02;60.47;100048.08;109364;1253;59803;-65
2024/04/03 09:41:57;;;;;;;1.90;1.30;;;;;;;9.10;60.11;100053.67;109152;1254;138480;-65
2024/04/03 09:44:24;;;;;;;2.00;1.20;;;;;;;9.02;59.37;100062.41;105932;1254;67168;-64
2024/04/03 09:47:05;;;;;;;2.30;1.20;;;;;;;8.58;58.61;100063.27;104771;1254;73308;-64
2024/04/03 09:49:40;;;;;;;1.20;1.10;;;;;;;8.36;59.30;100070.08;105033;1254;62471;-64
2024/04/03 09:52:08;;;;;;;1.60;1.20;;;;;;;8.40;59.67;100070.54;109178;1254;59966;-65
2024/04/03 09:54:35;;;;;;;1.40;1.00;;;;;;;8.46;59.31;100078.91;108840;1254;137719;-65
2024/04/03 09:57:03;;;;;;;1.20;0.70;;;;;;;8.19;58.92;100094.83;109220;1254;65956;-65
2024/04/03 09:59:30;;;;;;;1.10;0.80;;;;;;;7.79;59.92;100087.40;107737;1257;138003;-65
2024/04/03 10:01:56;;;;;;;1.60;1.00;;;;;;;7.78;60.08;100089.30;105084;1258;62214;-64
2024/04/03 10:04:41;;;;;;;1.60;1.00;;;;;;;8.02;60.74;100087.80;105091;1257;62054;-65
2024/04/03 10:07:17;;;;;;;2.00;1.30;;;;;;;8.31;59.79;100097.92;104975;1254;138018;-65
2024/04/03 10:09:50;;;;;;;1.70;1.00;;;;;;;8.23;59.08;100105.61;105355;1257;67000;-65
2024/04/03 10:12:19;;;;;;;1.50;0.90;;;;;;;7.90;58.22;100120.88;109057;1254;138039;-66
2024/04/03 10:14:47;;;;;;;1.70;1.00;;;;;;;7.51;58.66;100119.48;108565;1253;62159;-65
2024/04/03 10:17:14;;;;;;;1.00;0.80;;;;;;;7.35;59.05;100121.34;104726;1260;138137;-64
2024/04/03 10:19:45;;;;;;;1.80;1.10;;;;;;;7.24;58.92;100119.26;104927;1260;74757;-64
2024/04/03 10:22:14;;;;;;;1.10;0.90;;;;;;;7.13;59.52;100127.33;105241;1257;66451;-64
2024/04/03 10:24:44;;;;;;;2.40;1.20;;;;;;;7.15;59.84;100128.45;104961;1254;137425;-65
2024/04/03 10:27:10;;;;;;;1.60;1.10;;;;;;;7.36;60.16;100130.44;104929;1257;62146;-65
2024/04/03 10:29:37;;;;;;;1.30;0.90;;;;;;;7.56;59.98;100133.24;104978;1253;137899;-65
2024/04/03 10:32:04;;;;;;;1.20;1.00;;;;;;;7.80;59.57;100137.37;105219;1257;75967;-65
2024/04/03 10:34:32;;;;;;;2.00;1.10;;;;;;;7.89;59.27;100146.70;105491;1256;66582;-73
2024/04/03 10:36:59;;;;;;;1.80;1.10;;;;;;;7.95;59.03;100155.05;105087;1253;137738;-73
2024/04/03 10:39:26;;;;;;;1.50;1.00;;;;;;;7.78;58.54;100155.67;105095;1253;62035;-73
2024/04/03 10:41:57;;;;;;;1.20;0.70;;;;;;;7.49;58.33;100163.77;104910;1260;137828;-72
2024/04/03 10:44:23;;;;;;;1.70;0.90;;;;;;;7.22;58.55;100170.17;109303;1253;75276;-73
2024/04/03 10:46:50;;;;;;;1.50;0.90;;;;;;;7.27;58.91;100170.31;109134;1254;64663;-73
2024/04/03 10:49:18;;;;;;;1.80;1.20;;;;;;;7.48;58.83;100183.66;108906;1254;137604;-73
2024/04/03 10:51:45;;;;;;;3.20;1.40;;;;;;;7.60;58.87;100187.47;109067;1254;59684;-73
2024/04/03 10:54:14;;;;;;;1.40;0.90;;;;;;;7.74;58.63;100192.05;109178;1254;137922;-73
2024/04/03 10:56:44;;;;;;;1.10;0.80;;;;;;;7.79;58.49;100192.38;109303;1253;74084;-74
2024/04/03 10:59:11;;;;;;;2.10;1.10;;;;;;;7.79;58.21;100198.64;108732;1260;137657;-73
2024/04/03 11:01:37;;;;;;;1.40;1.20;;;;;;;7.75;58.54;100201.88;105016;1254;73470;-74
2024/04/03 11:04:04;;;;;;;3.70;1.30;;;;;;;8.03;58.88;100208.74;105048;1254;62048;-74
2024/04/03 11:06:31;;;;;;;2.60;1.50;;;;;;;8.23;58.50;100209.44;105039;1254;137443;-73
2024/04/03 11:08:57;;;;;;;2.00;1.30;;;;;;;8.44;58.47;100210.52;105002;1259;76197;-73
2024/04/03 11:11:24;;;;;;;1.10;0.90;;;;;;;8.46;57.93;100217.55;104869;1254;137856;-72
2024/04/03 11:13:50;;;;;;;2.70;1.10;;;;;;;8.26;57.27;100227.15;105138;1254;72379;-73
2024/04/03 11:16:17;;;;;;;1.10;0.80;;;;;;;7.94;56.85;100244.32;105184;1254;62015;-73
2024/04/03 11:18:44;;;;;;;2.20;0.90;;;;;;;7.52;56.42;100253.41;104783;1254;138412;-73
2024/04/03 11:21:10;;;;;;;1.50;0.90;;;;;;;7.26;56.72;100256.48;105003;1254;76475;-72
2024/04/03 11:23:39;;;;;;;1.10;0.90;;;;;;;7.17;57.13;100261.64;105048;1254;137640;-74
2024/04/03 11:26:06;;;;;;;0.80;0.80;;;;;;;7.22;57.09;100270.34;106771;1254;73647;-73
2024/04/03 11:28:33;;;;;;;1.00;0.90;;;;;;;7.14;57.01;100275.84;109259;1253;60123;-73
2024/04/03 11:30:59;;;;;;;2.00;0.80;;;;;;;7.04;57.18;100273.46;105374;1253;137620;-73
2024/04/03 11:33:27;;;;;;;2.20;1.20;;;;;;;6.92;57.45;100276.73;105212;1254;74319;-73